createdAt,value
2023-05-16T04:31:33.102Z,19.7309
2023-05-16T04:32:35.054Z,19.3455
2023-05-16T04:33:37.066Z,19.3895
2023-05-16T04:34:40.272Z,19.4953
2023-05-16T04:35:41.155Z,19.6107
2023-05-16T04:36:43.200Z,19.6740
2023-05-16T04:37:45.249Z,19.7722
2023-05-16T04:38:47.276Z,19.8925
2023-05-16T04:39:49.388Z,19.9825
2023-05-16T04:40:51.386Z,19.9519
2023-05-16T04:41:53.458Z,19.9755
2023-05-16T04:42:55.472Z,20.0416
2023-05-16T04:43:57.502Z,20.1068
2023-05-16T04:44:59.568Z,20.1589
2023-05-16T04:46:01.730Z,20.1817
2023-05-16T04:47:03.643Z,20.2144
2023-05-16T04:48:05.742Z,20.2378
2023-05-16T04:49:07.764Z,20.2542
2023-05-16T04:50:09.794Z,20.2951
2023-05-16T04:51:11.856Z,20.3294
2023-05-16T04:52:14.025Z,20.3621
2023-05-16T04:53:15.923Z,20.3915
2023-05-16T04:54:17.976Z,20.4198
2023-05-16T04:55:20.038Z,20.4186
2023-05-16T04:56:22.052Z,20.4393
2023-05-16T04:57:24.099Z,20.4463
2023-05-16T04:58:26.334Z,20.4430
2023-05-16T04:59:28.206Z,20.4664
2023-05-16T05:00:30.368Z,20.4640
2023-05-16T05:01:32.289Z,20.4494
2023-05-16T05:02:34.372Z,20.4537
2023-05-16T05:03:36.440Z,20.4668
2023-05-16T05:04:38.473Z,20.5172
2023-05-16T05:05:40.455Z,20.5406
2023-05-16T05:06:42.497Z,20.5531
2023-05-16T05:07:44.537Z,20.5480
2023-05-16T05:08:46.627Z,20.5599
2023-05-16T05:09:48.766Z,20.5743
2023-05-16T05:10:50.682Z,20.5876
2023-05-16T05:11:52.737Z,20.5907
2023-05-16T05:12:54.796Z,20.5950
2023-05-16T05:13:56.845Z,20.6281
2023-05-16T05:14:58.868Z,20.6626
2023-05-16T05:16:01.042Z,20.6363
2023-05-16T05:17:03.001Z,20.6390
2023-05-16T05:18:05.152Z,20.6073
2023-05-16T05:19:07.105Z,20.6082
2023-05-16T05:20:09.125Z,20.6238
2023-05-16T05:21:17.930Z,20.5983
2023-05-16T05:22:13.216Z,20.5789
2023-05-16T05:23:15.256Z,20.6139
2023-05-16T05:24:17.298Z,20.6086
2023-05-16T05:25:19.368Z,20.5702
2023-05-16T05:26:21.378Z,20.6047
2023-05-16T05:27:23.429Z,20.6164
2023-05-16T05:28:25.494Z,20.6581
2023-05-16T05:29:27.535Z,20.6692
2023-05-16T05:30:29.594Z,20.6601
2023-05-16T05:31:31.679Z,20.6406
2023-05-16T05:32:33.718Z,20.6392
2023-05-16T05:33:35.722Z,20.6636
2023-05-16T05:34:37.749Z,20.6593
2023-05-16T05:35:39.839Z,20.6429
2023-05-16T05:36:41.845Z,20.6568
2023-05-16T05:37:43.908Z,20.6414
2023-05-16T05:38:45.932Z,20.6800
2023-05-16T05:39:48.014Z,20.7084
2023-05-16T05:40:50.047Z,20.7318
2023-05-16T05:41:52.144Z,20.7269
2023-05-16T05:42:54.149Z,20.7053
2023-05-16T05:43:56.177Z,20.7141
2023-05-16T05:44:58.216Z,20.7170
2023-05-16T05:46:00.361Z,20.7386
2023-05-16T05:47:02.302Z,20.7739
2023-05-16T05:48:04.406Z,20.8004
2023-05-16T05:49:06.444Z,20.8195
2023-05-16T05:50:08.449Z,20.8249
2023-05-16T05:51:10.521Z,20.8113
2023-05-16T05:52:12.546Z,20.8185
2023-05-16T05:53:14.615Z,20.8454
2023-05-16T05:54:16.642Z,20.8772
2023-05-16T05:55:18.710Z,20.8733
2023-05-16T05:56:20.761Z,20.8857
2023-05-16T05:57:22.779Z,20.8701
2023-05-16T05:58:24.854Z,20.8440
2023-05-16T05:59:27.120Z,20.8546
2023-05-16T06:00:28.944Z,20.8813
2023-05-16T06:01:31.002Z,20.8920
2023-05-16T06:02:33.110Z,20.9430
2023-05-16T06:03:35.134Z,20.9654
2023-05-16T06:04:37.213Z,20.9697
2023-05-16T06:05:39.331Z,20.9947
2023-05-16T06:06:41.247Z,20.9953
2023-05-16T06:07:43.284Z,21.0175
2023-05-16T06:08:45.370Z,21.0280
2023-05-16T06:09:47.457Z,21.0274
2023-05-16T06:10:49.465Z,21.0027
2023-05-16T06:11:51.487Z,20.9350
2023-05-16T06:12:53.605Z,20.9183
2023-05-16T06:13:55.609Z,20.9074
2023-05-16T06:14:57.630Z,20.9619
2023-05-16T06:15:59.679Z,21.0163
2023-05-16T06:17:01.794Z,21.0319
2023-05-16T06:18:03.859Z,21.0455
2023-05-16T06:19:05.965Z,21.0633
2023-05-16T06:20:08.022Z,21.0288
2023-05-16T06:21:09.950Z,21.0362
2023-05-16T06:22:11.993Z,21.0543
2023-05-16T06:23:14.024Z,21.1061
2023-05-16T06:24:16.077Z,21.1116
2023-05-16T06:25:18.106Z,21.0716
2023-05-16T06:26:20.180Z,21.0855
2023-05-16T06:27:22.210Z,21.1063
2023-05-16T06:28:24.265Z,21.0882
2023-05-16T06:29:26.361Z,21.0609
2023-05-16T06:30:28.427Z,21.0430
2023-05-16T06:31:30.661Z,21.0422
2023-05-16T06:32:32.498Z,21.0479
2023-05-16T06:33:34.548Z,21.0707
2023-05-16T06:34:36.552Z,21.0274
2023-05-16T06:35:38.765Z,21.0120
2023-05-16T06:36:40.661Z,21.0110
2023-05-16T06:37:43.036Z,21.0282
2023-05-16T06:38:44.767Z,21.0525
2023-05-16T06:39:46.855Z,21.0748
2023-05-16T06:40:48.865Z,21.0145
2023-05-16T06:41:50.910Z,20.9865
2023-05-16T06:42:52.924Z,20.9824
2023-05-16T06:43:54.976Z,21.0013
2023-05-16T06:44:57.019Z,21.0093
2023-05-16T06:45:59.131Z,20.9960
2023-05-16T06:47:01.225Z,20.9368
2023-05-16T06:48:03.213Z,20.9374
2023-05-16T06:49:05.213Z,20.9456
2023-05-16T06:50:07.292Z,20.9528
2023-05-16T06:51:09.343Z,20.9070
2023-05-16T06:52:11.373Z,20.9263
2023-05-16T06:53:13.442Z,20.9206
2023-05-16T06:54:15.588Z,20.8920
2023-05-16T06:55:17.556Z,20.8565
2023-05-16T06:56:19.602Z,20.8575
2023-05-16T06:57:21.703Z,20.9000
2023-05-16T06:58:23.677Z,20.9210
2023-05-16T06:59:27.957Z,20.9407
2023-05-16T07:00:27.795Z,20.9569
2023-05-16T07:01:29.943Z,20.9430
2023-05-16T07:02:31.941Z,20.9339
2023-05-16T07:03:34.226Z,20.9286
2023-05-16T07:04:35.975Z,20.9565
2023-05-16T07:05:38.081Z,20.9695
2023-05-16T07:06:40.082Z,20.9483
2023-05-16T07:07:42.121Z,20.9376
2023-05-16T07:08:44.289Z,20.9202
2023-05-16T07:09:46.220Z,20.9304
2023-05-16T07:10:48.268Z,20.9520
2023-05-16T07:11:50.369Z,20.8750
2023-05-16T07:12:52.367Z,20.8906
2023-05-16T07:13:54.464Z,20.9263
2023-05-16T07:14:56.510Z,20.9594
2023-05-16T07:15:58.545Z,20.9658
2023-05-16T07:17:00.584Z,20.9450
2023-05-16T07:18:02.634Z,20.9608
2023-05-16T07:19:05.009Z,20.9481
2023-05-16T07:20:06.886Z,20.9415
2023-05-16T07:21:08.797Z,20.9545
2023-05-16T07:22:10.836Z,20.9380
2023-05-16T07:23:12.867Z,20.8961
2023-05-16T07:24:14.948Z,20.9015
2023-05-16T07:25:16.995Z,20.8974
2023-05-16T07:26:19.080Z,20.8701
2023-05-16T07:27:23.392Z,20.8727
2023-05-16T07:28:23.137Z,20.8592
2023-05-16T07:29:25.175Z,20.8848
2023-05-16T07:30:27.221Z,20.9350
2023-05-16T07:31:29.329Z,20.9356
2023-05-16T07:32:31.378Z,20.9387
2023-05-16T07:33:33.387Z,20.9173
2023-05-16T07:34:35.435Z,20.8610
2023-05-16T07:35:37.475Z,20.8049
2023-05-16T07:36:39.548Z,20.8372
2023-05-16T07:37:42.508Z,20.8136
2023-05-16T07:38:43.633Z,20.8405
2023-05-16T07:39:45.691Z,20.8347
2023-05-16T07:40:47.792Z,20.8512
2023-05-16T07:41:49.776Z,20.9216
2023-05-16T07:42:51.848Z,20.9438
2023-05-16T07:43:53.897Z,20.9442
2023-05-16T07:44:55.942Z,20.9553
2023-05-16T07:45:57.995Z,20.9524
2023-05-16T07:47:00.047Z,20.9387
2023-05-16T07:48:02.228Z,20.9512
2023-05-16T07:49:04.184Z,20.8546
2023-05-16T07:50:06.209Z,20.7501
2023-05-16T07:51:08.278Z,20.7789
2023-05-16T07:52:10.507Z,20.8160
2023-05-16T07:53:12.349Z,20.8754
2023-05-16T07:54:14.371Z,20.9592
2023-05-16T07:55:16.426Z,21.0081
2023-05-16T07:56:18.603Z,21.1135
2023-05-16T07:57:22.082Z,21.1235
2023-05-16T07:58:22.567Z,21.1952
2023-05-16T07:59:24.677Z,21.2172
2023-05-16T08:00:26.701Z,21.1810
2023-05-16T08:01:29.050Z,21.1502
2023-05-16T08:02:31.269Z,21.1328
2023-05-16T08:03:33.083Z,21.0395
2023-05-16T08:04:35.143Z,20.8169
2023-05-16T08:05:36.975Z,20.9356
2023-05-16T08:06:38.991Z,21.0181
2023-05-16T08:07:41.034Z,21.0352
2023-05-16T08:08:43.064Z,21.0432
2023-05-16T08:09:45.135Z,21.0350
2023-05-16T08:10:47.244Z,20.9917
2023-05-16T08:11:49.248Z,20.9830
2023-05-16T08:12:51.272Z,20.9993
2023-05-16T08:13:53.316Z,21.0200
2023-05-16T08:14:55.373Z,21.0208
2023-05-16T08:15:57.446Z,20.9793
2023-05-16T08:16:59.586Z,20.9660
2023-05-16T08:18:01.611Z,20.9584
2023-05-16T08:19:03.680Z,20.9352
2023-05-16T08:20:05.629Z,20.8364
2023-05-16T08:21:07.660Z,20.8286
2023-05-16T08:22:09.767Z,20.8240
2023-05-16T08:23:11.942Z,20.8493
2023-05-16T08:24:14.069Z,20.8686
2023-05-16T08:25:15.907Z,20.9196
2023-05-16T08:26:17.908Z,20.9701
2023-05-16T08:27:19.981Z,20.9442
2023-05-16T08:28:22.066Z,20.9247
2023-05-16T08:29:24.377Z,20.9302
2023-05-16T08:30:26.113Z,20.9060
2023-05-16T08:31:28.455Z,20.9124
2023-05-16T08:32:30.604Z,20.9300
2023-05-16T08:33:32.460Z,20.9306
2023-05-16T08:34:34.417Z,20.9251
2023-05-16T08:35:36.684Z,20.9325
2023-05-16T08:36:38.496Z,20.9522
2023-05-16T08:37:40.624Z,20.9500
2023-05-16T08:38:42.652Z,20.9707
2023-05-16T08:39:44.772Z,21.0050
2023-05-16T08:40:46.732Z,20.9896
2023-05-16T08:41:48.731Z,20.9436
2023-05-16T08:42:51.191Z,20.9641
2023-05-16T08:43:52.827Z,21.0140
2023-05-16T08:44:54.861Z,20.9960
2023-05-16T08:45:56.921Z,20.9939
2023-05-16T08:46:59.064Z,20.9799
2023-05-16T08:48:01.102Z,20.9857
2023-05-16T08:49:03.168Z,20.9847
2023-05-16T08:50:05.169Z,20.9845
2023-05-16T08:51:07.174Z,20.9910
2023-05-16T08:52:09.204Z,21.0032
2023-05-16T08:53:11.301Z,21.0048
2023-05-16T08:54:13.356Z,20.9458
2023-05-16T08:55:15.371Z,20.9304
2023-05-16T08:56:17.446Z,20.8889
2023-05-16T08:57:19.455Z,20.8565
2023-05-16T08:58:21.633Z,20.8205
2023-05-16T08:59:23.612Z,20.8310
2023-05-16T09:00:25.623Z,20.8657
2023-05-16T09:01:27.693Z,20.9070
2023-05-16T09:02:29.767Z,20.8795
2023-05-16T09:03:31.848Z,20.8388
2023-05-16T09:04:33.869Z,20.8386
2023-05-16T09:05:35.863Z,20.8357
2023-05-16T09:06:37.979Z,20.7910
2023-05-16T09:07:39.961Z,20.7832
2023-05-16T09:08:41.987Z,20.7552
2023-05-16T09:09:44.079Z,20.7682
2023-05-16T09:10:46.257Z,20.7856
2023-05-16T09:11:48.179Z,20.8218
2023-05-16T09:12:50.216Z,20.8688
2023-05-16T09:13:52.269Z,20.8939
2023-05-16T09:14:54.304Z,20.9126
2023-05-16T09:15:56.360Z,20.9424
2023-05-16T09:16:58.451Z,20.9518
2023-05-16T09:18:00.619Z,20.9058
2023-05-16T09:19:02.618Z,20.9027
2023-05-16T09:20:04.543Z,20.9095
2023-05-16T09:21:06.618Z,20.8789
2023-05-16T09:22:08.671Z,20.8787
2023-05-16T09:23:10.713Z,20.8959
2023-05-16T09:24:12.748Z,20.9046
2023-05-16T09:25:29.642Z,20.9241
2023-05-16T09:26:17.041Z,20.8596
2023-05-16T09:27:18.933Z,20.7758
2023-05-16T09:28:20.969Z,20.8144
2023-05-16T09:29:22.996Z,20.8185
2023-05-16T09:30:25.057Z,20.8290
2023-05-16T09:31:27.256Z,20.8653
2023-05-16T09:32:29.169Z,20.8514
2023-05-16T09:33:31.291Z,20.8770
2023-05-16T09:34:33.269Z,20.8405
2023-05-16T09:35:44.768Z,20.7400
2023-05-16T09:36:37.346Z,20.7863
2023-05-16T09:37:39.424Z,20.8380
2023-05-16T09:38:41.452Z,20.8795
2023-05-16T09:39:43.499Z,20.8994
2023-05-16T09:40:45.661Z,20.9288
2023-05-16T09:41:47.627Z,20.8464
2023-05-16T09:42:49.653Z,20.7941
2023-05-16T09:43:51.781Z,20.8405
2023-05-16T09:44:53.792Z,20.8442
2023-05-16T09:45:55.891Z,20.8477
2023-05-16T09:46:58.021Z,20.8238
2023-05-16T09:47:59.975Z,20.8452
2023-05-16T09:49:01.971Z,20.8119
2023-05-16T09:50:04.127Z,20.7113
2023-05-16T09:51:06.197Z,20.7037
2023-05-16T09:52:08.137Z,20.7445
2023-05-16T09:53:10.203Z,20.7220
2023-05-16T09:54:12.253Z,20.7452
2023-05-16T09:55:14.287Z,20.7308
2023-05-16T09:56:16.352Z,20.7482
2023-05-16T09:57:18.365Z,20.7961
2023-05-16T09:58:20.486Z,20.8413
2023-05-16T09:59:22.459Z,20.9198
2023-05-16T10:00:24.529Z,20.9610
2023-05-16T10:01:26.616Z,21.0282
2023-05-16T10:02:28.622Z,21.0305
2023-05-16T10:03:30.815Z,20.9691
2023-05-16T10:04:32.791Z,20.9345
2023-05-16T10:05:34.890Z,20.9017
2023-05-16T10:06:36.820Z,20.9089
2023-05-16T10:07:38.915Z,20.9167
2023-05-16T10:08:40.930Z,20.8559
2023-05-16T10:09:42.985Z,20.7893
2023-05-16T10:10:45.036Z,20.8263
2023-05-16T10:11:47.112Z,20.8462
2023-05-16T10:12:49.155Z,20.8826
2023-05-16T10:13:51.200Z,20.8271
2023-05-16T10:14:53.270Z,20.8101
2023-05-16T10:15:55.311Z,20.8725
2023-05-16T10:16:57.358Z,20.8974
2023-05-16T10:17:59.531Z,20.8857
2023-05-16T10:19:01.560Z,20.9037
2023-05-16T10:20:03.668Z,20.8968
2023-05-16T10:21:05.568Z,20.8571
2023-05-16T10:22:07.600Z,20.8610
2023-05-16T10:23:10.087Z,20.8140
2023-05-16T10:24:11.738Z,20.7612
2023-05-16T10:25:13.759Z,20.8409
2023-05-16T10:26:15.794Z,20.8401
2023-05-16T10:27:19.321Z,20.7651
2023-05-16T10:28:20.056Z,20.8095
2023-05-16T10:29:21.947Z,20.7302
2023-05-16T10:30:23.994Z,20.7413
2023-05-16T10:31:26.103Z,20.7096
2023-05-16T10:32:28.185Z,20.7283
2023-05-16T10:33:30.161Z,20.7741
2023-05-16T10:34:32.203Z,20.7889
2023-05-16T10:35:34.249Z,20.7809
2023-05-16T10:36:36.493Z,20.7406
2023-05-16T10:37:38.323Z,20.7577
2023-05-16T10:38:40.437Z,20.7480
2023-05-16T10:39:42.486Z,20.7817
2023-05-16T10:40:44.466Z,20.8166
2023-05-16T10:41:46.529Z,20.7951
2023-05-16T10:42:48.753Z,20.7698
2023-05-16T10:43:50.748Z,20.7967
2023-05-16T10:45:04.904Z,20.8146
2023-05-16T10:45:54.825Z,20.8655
2023-05-16T10:46:56.851Z,20.8729
2023-05-16T10:47:59.060Z,20.8887
2023-05-16T10:49:00.941Z,20.8855
2023-05-16T10:50:02.920Z,20.8998
2023-05-16T10:51:04.973Z,20.9224
2023-05-16T10:52:07.078Z,20.9458
2023-05-16T10:53:09.077Z,20.9263
2023-05-16T10:54:11.133Z,20.9179
2023-05-16T10:55:13.166Z,20.9122
2023-05-16T10:56:15.287Z,20.9103
2023-05-16T10:57:17.272Z,20.8853
2023-05-16T10:58:19.311Z,20.8526
2023-05-16T10:59:21.418Z,20.8376
2023-05-16T11:00:23.445Z,20.8417
2023-05-16T11:01:25.588Z,20.8335
2023-05-16T11:02:27.654Z,20.7823
2023-05-16T11:03:29.800Z,20.7427
2023-05-16T11:04:31.628Z,20.5790
2023-05-16T11:05:33.684Z,20.6133
2023-05-16T11:06:35.777Z,20.6067
2023-05-16T11:07:37.781Z,20.5940
2023-05-16T11:08:39.847Z,20.6435
2023-05-16T11:09:41.968Z,20.6488
2023-05-16T11:10:43.934Z,20.6632
2023-05-16T11:11:48.585Z,20.6505
2023-05-16T11:12:48.059Z,20.6570
2023-05-16T11:13:50.118Z,20.7123
2023-05-16T11:14:52.218Z,20.7885
2023-05-16T11:15:54.183Z,20.8698
2023-05-16T11:16:57.121Z,20.9432
2023-05-16T11:17:58.320Z,20.9461
2023-05-16T11:19:00.385Z,20.9105
2023-05-16T11:20:02.445Z,20.9025
2023-05-16T11:21:04.487Z,20.8532
2023-05-16T11:22:06.491Z,20.8327
2023-05-16T11:23:08.549Z,20.7573
2023-05-16T11:24:10.557Z,20.7480
2023-05-16T11:25:12.635Z,20.7536
2023-05-16T11:26:14.718Z,20.7254
2023-05-16T11:27:16.750Z,20.7049
2023-05-16T11:28:18.839Z,20.7115
2023-05-16T11:29:20.827Z,20.6940
2023-05-16T11:30:22.869Z,20.7088
2023-05-16T11:31:24.986Z,20.7413
2023-05-16T11:32:27.020Z,20.6879
2023-05-16T11:33:29.032Z,20.7277
2023-05-16T11:34:31.047Z,20.7899
2023-05-16T11:35:33.142Z,20.7544
2023-05-16T11:36:35.176Z,20.8353
2023-05-16T11:37:37.207Z,20.8947
2023-05-16T11:38:39.434Z,20.8951
2023-05-16T11:39:41.341Z,20.8407
2023-05-16T11:40:43.345Z,20.8244
2023-05-16T11:41:46.046Z,20.8162
2023-05-16T11:42:47.464Z,20.7887
2023-05-16T11:43:49.508Z,20.7770
2023-05-16T11:44:51.566Z,20.8027
2023-05-16T11:45:53.614Z,20.7873
2023-05-16T11:46:55.707Z,20.8520
2023-05-16T11:47:57.724Z,20.8865
2023-05-16T11:48:59.732Z,20.9185
2023-05-16T11:50:01.794Z,20.9093
2023-05-16T11:51:03.921Z,20.8978
2023-05-16T11:52:05.882Z,20.9076
2023-05-16T11:53:08.211Z,20.9233
2023-05-16T11:54:10.003Z,20.9278
2023-05-16T11:55:12.034Z,20.9399
2023-05-16T11:56:14.099Z,20.9557
2023-05-16T11:57:16.170Z,20.8912
2023-05-16T11:58:18.221Z,20.8820
2023-05-16T11:59:20.233Z,20.9313
2023-05-16T12:00:23.106Z,20.9561
2023-05-16T12:01:24.479Z,20.9978
2023-05-16T12:02:26.499Z,20.9912
2023-05-16T12:03:28.524Z,20.9801
2023-05-16T12:04:30.623Z,20.9951
2023-05-16T12:05:32.936Z,20.9867
2023-05-16T12:06:34.629Z,20.9919
2023-05-16T12:07:36.612Z,21.0221
2023-05-16T12:08:39.551Z,21.0401
2023-05-16T12:09:40.733Z,21.0241
2023-05-16T12:10:42.773Z,21.0029
2023-05-16T12:11:44.801Z,20.9668
2023-05-16T12:12:46.914Z,20.9389
2023-05-16T12:13:48.905Z,20.9643
2023-05-16T12:14:50.949Z,20.9697
2023-05-16T12:15:53.026Z,20.9317
2023-05-16T12:16:55.134Z,20.9705
2023-05-16T12:17:57.271Z,21.0666
2023-05-16T12:18:59.227Z,21.0755
2023-05-16T12:20:01.215Z,21.0660
2023-05-16T12:21:03.330Z,21.0666
2023-05-16T12:22:05.344Z,21.0483
2023-05-16T12:23:07.396Z,21.0204
2023-05-16T12:24:09.416Z,20.9966
